createdAt,value
2019-04-05T00:01:43.313Z,85729.73
2019-04-05T00:04:10.129Z,85727.33
2019-04-05T00:06:36.859Z,85730.47
2019-04-05T00:09:05.417Z,85728.61
2019-04-05T00:11:32.194Z,85737.38
2019-04-05T00:13:58.919Z,85733.27
2019-04-05T00:16:25.637Z,85737.37
2019-04-05T00:18:52.419Z,85733.09
2019-04-05T00:21:19.140Z,85732.35
2019-04-05T00:23:45.943Z,85735.70
2019-04-05T00:26:12.677Z,85729.73
2019-04-05T00:28:39.459Z,85726.02
2019-04-05T00:31:06.327Z,85728.62
2019-04-05T00:33:33.072Z,85734.94
2019-04-05T00:35:59.798Z,85731.23
2019-04-05T00:38:26.656Z,85723.59
2019-04-05T00:40:53.400Z,85728.99
2019-04-05T00:43:20.142Z,85723.23
2019-04-05T00:45:46.900Z,85716.87
2019-04-05T00:48:13.638Z,85713.35
2019-04-05T00:50:40.547Z,85715.76
2019-04-05T00:53:07.283Z,85715.41
2019-04-05T00:55:34.116Z,85718.56
2019-04-05T00:58:00.887Z,85723.97
2019-04-05T01:00:27.716Z,85727.14
2019-04-05T01:02:54.450Z,85725.45
2019-04-05T01:05:21.254Z,85718.02
2019-04-05T01:07:48.086Z,85723.05
2019-04-05T01:10:15.014Z,85721.91
2019-04-05T01:12:44.694Z,85720.80
2019-04-05T01:15:14.237Z,85714.09
2019-04-05T01:17:41.116Z,85724.70
2019-04-05T01:20:09.039Z,85739.04
2019-04-05T01:22:37.170Z,85734.02
2019-04-05T01:25:05.332Z,85734.77
2019-04-05T01:27:34.456Z,85747.23
2019-04-05T01:30:01.555Z,85744.07
2019-04-05T01:32:28.301Z,85745.55
2019-04-05T01:34:55.120Z,85742.40
2019-04-05T01:37:22.188Z,85739.42
2019-04-05T01:39:48.920Z,85742.40
2019-04-05T01:42:16.316Z,85740.89
2019-04-05T01:44:43.644Z,85740.53
2019-04-05T01:47:10.379Z,85742.03
2019-04-05T01:49:37.257Z,85738.88
2019-04-05T01:52:04.072Z,85737.20
2019-04-05T01:54:30.803Z,85738.30
2019-04-05T01:56:57.560Z,85733.09
2019-04-05T01:59:24.290Z,85736.08
2019-04-05T02:01:51.241Z,85735.69
2019-04-05T02:04:17.994Z,85728.62
2019-04-05T02:06:44.818Z,85720.79
2019-04-05T02:09:11.728Z,85727.49
2019-04-05T02:11:38.551Z,85724.52
2019-04-05T02:14:05.383Z,85727.69
2019-04-05T02:16:32.183Z,85722.86
2019-04-05T02:18:59.014Z,85721.73
2019-04-05T02:21:25.837Z,85720.61
2019-04-05T02:23:52.808Z,85728.08
2019-04-05T02:26:19.553Z,85723.77
2019-04-05T02:28:46.287Z,85726.95
2019-04-05T02:31:13.300Z,85728.08
2019-04-05T02:33:40.058Z,85723.97
2019-04-05T02:36:06.830Z,85734.94
2019-04-05T02:38:33.556Z,85730.66
2019-04-05T02:41:01.997Z,85729.19
2019-04-05T02:43:32.962Z,85730.86
2019-04-05T02:46:01.376Z,85725.45
2019-04-05T02:48:33.558Z,85724.53
2019-04-05T02:51:02.885Z,85724.88
2019-04-05T02:53:32.500Z,85733.09
2019-04-05T02:56:02.969Z,85730.49
2019-04-05T02:58:31.004Z,85733.66
2019-04-05T03:00:57.903Z,85732.53
2019-04-05T03:03:25.017Z,85726.02
2019-04-05T03:05:51.940Z,85727.89
2019-04-05T03:08:19.299Z,85729.36
2019-04-05T03:11:06.558Z,85725.07
2019-04-05T03:13:38.453Z,85729.36
2019-04-05T03:16:16.595Z,85722.84
2019-04-05T03:18:51.414Z,85717.27
2019-04-05T03:21:23.536Z,85723.41
2019-04-05T03:23:54.002Z,85729.55
2019-04-05T03:26:26.140Z,85722.66
2019-04-05T03:28:57.929Z,85724.52
2019-04-05T03:31:26.038Z,85720.42
2019-04-05T03:33:53.454Z,85721.55
2019-04-05T03:36:21.914Z,85724.34
2019-04-05T03:38:49.958Z,85720.23
2019-04-05T03:41:16.738Z,85726.75
2019-04-05T03:43:44.069Z,85733.64
2019-04-05T03:46:11.084Z,85729.91
2019-04-05T03:48:37.995Z,85736.98
2019-04-05T03:51:05.367Z,85733.09
2019-04-05T03:53:32.157Z,85727.49
2019-04-05T03:56:00.250Z,85724.52
2019-04-05T03:58:28.173Z,85726.94
2019-04-05T04:00:55.019Z,85726.94
2019-04-05T04:03:21.788Z,85726.19
2019-04-05T04:05:48.625Z,85725.07
2019-04-05T04:08:16.016Z,85722.84
2019-04-05T04:10:45.751Z,85724.88
2019-04-05T04:13:12.793Z,85727.13
2019-04-05T04:15:39.694Z,85718.02
2019-04-05T04:18:06.533Z,85724.88
2019-04-05T04:20:44.343Z,85726.75
2019-04-05T04:23:11.571Z,85722.29
2019-04-05T04:25:40.482Z,85720.06
2019-04-05T04:28:08.505Z,85730.66
2019-04-05T04:30:36.806Z,85721.19
2019-04-05T04:33:05.171Z,85726.38
2019-04-05T04:35:33.166Z,85721.36
2019-04-05T04:38:00.665Z,85721.54
2019-04-05T04:40:28.159Z,85726.19
2019-04-05T04:42:55.189Z,85723.39
2019-04-05T04:45:22.216Z,85722.09
2019-04-05T04:47:49.437Z,85725.83
2019-04-05T04:50:16.974Z,85723.04
2019-04-05T04:52:44.006Z,85726.94
2019-04-05T04:55:11.208Z,85737.02
2019-04-05T04:57:38.347Z,85741.64
2019-04-05T05:00:06.432Z,85737.75
2019-04-05T05:02:33.266Z,85735.89
2019-04-05T05:05:00.488Z,85729.73
2019-04-05T05:08:23.293Z,85735.89
2019-04-05T05:10:50.046Z,85732.16
2019-04-05T05:13:16.996Z,85738.67
2019-04-05T05:15:44.085Z,85740.33
2019-04-05T05:18:11.024Z,85742.58
2019-04-05T05:20:37.765Z,85741.83
2019-04-05T05:23:04.965Z,85739.78
2019-04-05T05:25:32.688Z,85745.94
2019-04-05T05:27:59.420Z,85753.93
2019-04-05T05:30:26.879Z,85752.64
2019-04-05T05:32:53.848Z,85749.28
2019-04-05T05:35:20.658Z,85741.09
2019-04-05T05:37:48.206Z,85744.06
2019-04-05T05:40:16.034Z,85741.66
2019-04-05T05:42:42.776Z,85745.55
2019-04-05T05:45:10.086Z,85744.64
2019-04-05T05:47:36.807Z,85752.45
2019-04-05T05:50:08.366Z,85745.57
2019-04-05T05:52:35.711Z,85747.06
2019-04-05T05:55:06.542Z,85738.12
2019-04-05T05:57:33.285Z,85742.40
2019-04-05T06:00:00.507Z,85747.80
2019-04-05T06:02:28.108Z,85744.64
2019-04-05T06:04:55.260Z,85742.21
2019-04-05T06:07:21.988Z,85751.33
2019-04-05T06:09:48.781Z,85752.45
2019-04-05T06:12:15.506Z,85750.42
2019-04-05T06:14:42.244Z,85755.25
2019-04-05T06:17:09.057Z,85753.56
2019-04-05T06:19:35.776Z,85752.45
2019-04-05T06:22:02.505Z,85745.01
2019-04-05T06:24:29.269Z,85743.88
2019-04-05T06:26:56.007Z,85747.80
2019-04-05T06:29:22.738Z,85745.01
2019-04-05T06:31:49.490Z,85743.70
2019-04-05T06:34:16.393Z,85736.23
2019-04-05T06:36:43.103Z,85734.94
2019-04-05T06:39:09.881Z,85734.38
2019-04-05T06:41:36.626Z,85741.09
2019-04-05T06:44:03.505Z,85740.89
2019-04-05T06:46:30.256Z,85742.92
2019-04-05T06:48:56.986Z,85742.17
2019-04-05T06:51:23.760Z,85747.20
2019-04-05T06:53:50.507Z,85747.04
2019-04-05T06:56:17.346Z,85746.66
2019-04-05T06:58:46.338Z,85748.70
2019-04-05T07:01:12.676Z,85755.80
2019-04-05T07:03:39.411Z,85752.05
2019-04-05T07:06:06.182Z,85750.36
2019-04-05T07:08:32.916Z,85755.41
2019-04-05T07:10:59.659Z,85764.70
2019-04-05T07:13:27.609Z,85767.33
2019-04-05T07:15:54.455Z,85766.00
2019-04-05T07:18:32.622Z,85765.08
2019-04-05T07:20:49.768Z,85766.94
2019-04-05T07:23:16.480Z,85765.47
2019-04-05T07:25:43.192Z,85771.41
2019-04-05T07:28:09.964Z,85781.86
2019-04-05T07:30:36.688Z,85787.26
2019-04-05T07:33:03.478Z,85788.92
2019-04-05T07:35:33.675Z,85795.25
2019-04-05T07:37:59.162Z,85791.70
2019-04-05T07:40:25.923Z,85789.27
2019-04-05T07:42:52.669Z,85793.18
2019-04-05T07:45:19.457Z,85792.24
2019-04-05T07:47:46.198Z,85784.59
2019-04-05T07:50:13.544Z,85790.39
2019-04-05T07:52:40.346Z,85792.23
2019-04-05T07:55:07.160Z,85795.04
2019-04-05T07:57:33.884Z,85799.89
2019-04-05T08:00:00.672Z,85796.90
2019-04-05T08:02:27.380Z,85803.23
2019-04-05T08:04:54.786Z,85801.37
2019-04-05T08:07:25.584Z,85802.88
2019-04-05T08:09:53.911Z,85807.91
2019-04-05T08:12:21.409Z,85811.63
2019-04-05T08:14:48.828Z,85816.83
2019-04-05T08:17:15.620Z,85820.95
2019-04-05T08:19:42.354Z,85818.52
2019-04-05T08:22:09.074Z,85822.83
2019-04-05T08:24:35.866Z,85823.55
2019-04-05T08:27:02.614Z,85823.75
2019-04-05T08:29:29.412Z,85826.16
2019-04-05T08:31:56.136Z,85829.91
2019-04-05T08:34:22.875Z,85827.83
2019-04-05T08:36:49.679Z,85828.95
2019-04-05T08:39:16.402Z,85838.09
2019-04-05T08:41:43.200Z,85840.52
2019-04-05T08:44:09.956Z,85840.31
2019-04-05T08:46:36.690Z,85839.57
2019-04-05T08:49:10.449Z,85840.09
2019-04-05T08:51:32.679Z,85845.14
2019-04-05T08:53:59.421Z,85844.94
2019-04-05T08:56:26.202Z,85843.22
2019-04-05T08:58:52.913Z,85849.93
2019-04-05T09:01:19.650Z,85845.59
2019-04-05T09:03:46.444Z,85838.87
2019-04-05T09:06:13.182Z,85838.47
2019-04-05T09:08:39.937Z,85841.63
2019-04-05T09:11:06.809Z,85836.58
2019-04-05T09:13:33.549Z,85839.74
2019-04-05T09:16:00.291Z,85837.09
2019-04-05T09:18:27.045Z,85836.12
2019-04-05T09:20:55.597Z,85833.47
2019-04-05T09:23:22.302Z,85842.00
2019-04-05T09:25:49.087Z,85838.05
2019-04-05T09:28:15.832Z,85838.24
2019-04-05T09:30:42.609Z,85834.11
2019-04-05T09:33:09.343Z,85837.38
2019-04-05T09:35:36.084Z,85841.45
2019-04-05T09:38:03.019Z,85841.48
2019-04-05T09:40:29.768Z,85840.73
2019-04-05T09:42:56.494Z,85849.81
2019-04-05T09:45:23.270Z,85838.55
2019-04-05T09:50:45.377Z,85847.67
2019-04-05T09:53:12.105Z,85863.02
2019-04-05T09:55:38.831Z,85852.14
2019-04-05T09:58:05.619Z,85852.34
2019-04-05T10:00:32.347Z,85861.87
2019-04-05T10:02:59.087Z,85857.19
2019-04-05T10:05:25.876Z,85849.88
2019-04-05T10:07:55.095Z,85854.31
2019-04-05T10:10:21.181Z,85858.03
2019-04-05T10:12:47.949Z,85864.00
2019-04-05T10:15:14.861Z,85853.56
2019-04-05T10:17:41.650Z,85862.17
2019-04-05T10:20:09.050Z,85868.56
2019-04-05T10:22:35.873Z,85867.41
2019-04-05T10:25:05.211Z,85863.13
2019-04-05T10:27:31.931Z,85867.92
2019-04-05T10:29:59.002Z,85863.28
2019-04-05T10:32:25.715Z,85868.87
2019-04-05T10:34:56.545Z,85870.58
2019-04-05T10:37:23.969Z,85868.72
2019-04-05T10:39:50.757Z,85868.91
2019-04-05T10:42:32.774Z,85871.14
2019-04-05T10:44:59.583Z,85870.37
2019-04-05T10:47:26.708Z,85867.41
2019-04-05T10:50:03.174Z,85875.61
2019-04-05T10:52:22.010Z,85868.47
2019-04-05T10:54:48.722Z,85867.86
2019-04-05T10:57:15.565Z,85870.80
2019-04-05T10:59:42.279Z,85870.53
2019-04-05T11:02:09.023Z,85863.53
2019-04-05T11:04:35.777Z,85867.59
2019-04-05T11:07:02.588Z,85869.22
2019-04-05T11:09:29.387Z,85866.22
2019-04-05T11:11:56.153Z,85870.11
2019-04-05T11:14:22.872Z,85868.80
2019-04-05T11:16:58.237Z,85865.43
2019-04-05T11:19:18.209Z,85865.91
2019-04-05T11:21:47.906Z,85873.21
2019-04-05T11:24:13.494Z,85867.78
2019-04-05T11:26:40.231Z,85868.11
2019-04-05T11:29:06.938Z,85871.02
2019-04-05T11:31:33.759Z,85863.17
2019-04-05T11:34:00.583Z,85863.16
2019-04-05T11:36:27.298Z,85861.39
2019-04-05T11:38:54.332Z,85854.81
2019-04-05T11:41:24.456Z,85858.49
2019-04-05T11:43:54.100Z,85862.41
2019-04-05T11:46:20.968Z,85856.68
2019-04-05T11:48:47.989Z,85855.86
2019-04-05T11:51:14.736Z,85858.34
2019-04-05T11:53:41.528Z,85855.30
2019-04-05T11:56:14.479Z,85854.97
2019-04-05T11:58:36.773Z,85859.77
2019-04-05T12:01:03.567Z,85863.64
2019-04-05T12:03:30.285Z,85862.59
2019-04-05T12:05:57.053Z,85860.63
2019-04-05T12:08:23.777Z,85861.44
2019-04-05T12:10:50.514Z,85858.62
2019-04-05T12:13:17.315Z,85853.75
2019-04-05T12:15:44.042Z,85852.43
2019-04-05T12:18:10.775Z,85851.77
2019-04-05T12:20:47.823Z,85854.00
2019-04-05T12:23:06.072Z,85853.97
2019-04-05T12:25:33.667Z,85852.19
2019-04-05T12:28:06.981Z,85852.09
2019-04-05T12:30:29.757Z,85844.58
2019-04-05T12:32:56.520Z,85845.13
2019-04-05T12:35:23.277Z,85851.72
2019-04-05T12:37:51.001Z,85845.92
2019-04-05T12:40:20.674Z,85847.16
2019-04-05T12:42:47.434Z,85848.58
2019-04-05T12:45:15.432Z,85844.92
2019-04-05T12:47:45.379Z,85841.92
2019-04-05T12:50:14.249Z,85839.39
2019-04-05T12:52:39.852Z,85840.00
2019-04-05T12:55:26.313Z,85841.37
2019-04-05T12:57:53.146Z,85843.91
2019-04-05T13:00:20.173Z,85844.16
2019-04-05T13:02:47.783Z,85847.58
2019-04-05T13:05:15.505Z,85847.36
2019-04-05T13:07:42.357Z,85851.36
2019-04-05T13:10:09.906Z,85847.51
2019-04-05T13:12:36.686Z,85845.36
2019-04-05T13:15:13.710Z,85853.21
2019-04-05T13:17:34.646Z,85850.48
2019-04-05T13:20:01.463Z,85854.98
2019-04-05T13:22:28.166Z,85853.25
2019-04-05T13:24:54.909Z,85846.58
2019-04-05T13:27:21.788Z,85846.86
2019-04-05T13:29:49.220Z,85855.27
2019-04-05T13:32:17.216Z,85851.66
2019-04-05T13:34:44.959Z,85851.33
2019-04-05T13:37:20.240Z,85844.56
2019-04-05T13:39:40.380Z,85856.83
2019-04-05T13:42:07.092Z,85855.00
2019-04-05T13:44:33.872Z,85852.46
2019-04-05T13:47:00.634Z,85849.17
2019-04-05T13:49:27.372Z,85851.20
2019-04-05T13:51:54.186Z,85849.98
2019-04-05T13:54:20.918Z,85848.61
2019-04-05T13:56:47.644Z,85846.55
2019-04-05T13:59:14.455Z,85851.88
2019-04-05T14:01:41.144Z,85843.72
2019-04-05T14:04:07.883Z,85847.83
2019-04-05T14:06:34.688Z,85842.23
2019-04-05T14:09:01.395Z,85844.45
2019-04-05T14:11:28.112Z,85848.22
2019-04-05T14:13:54.907Z,85844.59
2019-04-05T14:16:21.639Z,85844.69
2019-04-05T14:18:49.867Z,85845.52
2019-04-05T14:21:20.649Z,85845.67
2019-04-05T14:23:46.393Z,85849.72
2019-04-05T14:26:13.173Z,85849.88
2019-04-05T14:28:39.916Z,85852.62
2019-04-05T14:31:06.641Z,85862.74
2019-04-05T14:33:33.398Z,85859.01
2019-04-05T14:36:00.130Z,85866.55
2019-04-05T14:38:27.220Z,85869.07
2019-04-05T14:40:53.953Z,85869.64
2019-04-05T14:43:21.406Z,85866.67
2019-04-05T14:45:48.479Z,85873.16
2019-04-05T14:48:15.198Z,85875.00
2019-04-05T14:50:41.940Z,85878.27
2019-04-05T14:53:08.794Z,85874.16
2019-04-05T14:55:35.538Z,85869.64
2019-04-05T14:58:03.355Z,85869.56
2019-04-05T15:00:30.833Z,85863.86
2019-04-05T15:02:57.580Z,85869.53
2019-04-05T15:05:24.471Z,85874.31
2019-04-05T15:07:52.030Z,85870.25
2019-04-05T15:10:19.711Z,85870.92
2019-04-05T15:12:46.495Z,85874.06
2019-04-05T15:15:13.429Z,85869.12
2019-04-05T15:17:47.931Z,85873.00
2019-04-05T15:20:10.004Z,85871.84
2019-04-05T15:22:36.722Z,85865.31
2019-04-05T15:25:08.045Z,85866.80
2019-04-05T15:27:34.910Z,85871.43
2019-04-05T15:30:01.958Z,85870.21
2019-04-05T15:32:28.718Z,85866.16
2019-04-05T15:34:58.579Z,85873.19
2019-04-05T15:37:24.042Z,85870.84
2019-04-05T15:39:50.823Z,85877.23
2019-04-05T15:42:17.681Z,85879.08
2019-04-05T15:44:44.431Z,85878.80
2019-04-05T15:47:13.570Z,85878.91
2019-04-05T15:49:39.733Z,85881.83
2019-04-05T15:52:31.164Z,85887.98
2019-04-05T15:54:55.196Z,85894.05
2019-04-05T15:57:21.976Z,85891.25
2019-04-05T15:59:48.650Z,85899.67
2019-04-05T16:02:15.730Z,85896.60
2019-04-05T16:04:42.716Z,85902.05
2019-04-05T16:07:09.470Z,85900.53
2019-04-05T16:09:36.445Z,85903.10
2019-04-05T16:12:03.687Z,85901.22
2019-04-05T16:14:30.478Z,85901.72
2019-04-05T16:16:57.207Z,85901.76
2019-04-05T16:19:24.050Z,85908.66
2019-04-05T16:21:50.828Z,85914.38
2019-04-05T16:24:17.556Z,85909.03
2019-04-05T16:26:44.479Z,85914.72
2019-04-05T16:29:11.603Z,85917.97
2019-04-05T16:31:38.271Z,85922.41
2019-04-05T16:34:05.005Z,85925.77
2019-04-05T16:36:31.800Z,85924.62
2019-04-05T16:38:58.517Z,85928.42
2019-04-05T16:41:25.289Z,85926.39
2019-04-05T16:43:52.063Z,85920.33
2019-04-05T16:46:18.762Z,85922.98
2019-04-05T16:48:45.542Z,85929.05
2019-04-05T16:51:12.240Z,85932.72
2019-04-05T16:53:38.963Z,85935.75
2019-04-05T16:56:05.823Z,85936.89
2019-04-05T16:58:32.539Z,85946.58
2019-04-05T17:00:59.254Z,85955.23
2019-04-05T17:03:26.027Z,85955.28
2019-04-05T17:05:52.756Z,85960.83
2019-04-05T17:08:19.617Z,85961.37
2019-04-05T17:10:46.343Z,85957.16
2019-04-05T17:13:13.060Z,85963.23
2019-04-05T17:15:39.897Z,85965.34
2019-04-05T17:18:06.638Z,85970.11
2019-04-05T17:20:33.392Z,85975.27
2019-04-05T17:23:00.240Z,85968.86
2019-04-05T17:25:26.949Z,85976.98
2019-04-05T17:27:53.651Z,85973.97
2019-04-05T17:30:20.459Z,85974.80
2019-04-05T17:32:47.205Z,85979.55
2019-04-05T17:35:14.032Z,85977.20
2019-04-05T17:37:40.918Z,85981.76
2019-04-05T17:40:08.354Z,85982.01
2019-04-05T17:42:35.114Z,85988.81
2019-04-05T17:45:03.685Z,85986.24
2019-04-05T17:47:30.414Z,85988.91
2019-04-05T17:49:57.144Z,85989.12
2019-04-05T17:52:23.925Z,85992.70
2019-04-05T17:54:50.727Z,86001.00
2019-04-05T17:57:18.026Z,86001.81
2019-04-05T17:59:44.744Z,86004.47
2019-04-05T18:02:11.474Z,86008.84
2019-04-05T18:04:38.340Z,86007.17
2019-04-05T18:07:05.066Z,86011.33
2019-04-05T18:09:31.836Z,86014.15
2019-04-05T18:11:58.634Z,86011.73
2019-04-05T18:14:25.356Z,86014.37
2019-04-05T18:16:52.089Z,86022.27
2019-04-05T18:19:18.857Z,86030.91
2019-04-05T18:21:45.569Z,86037.65
2019-04-05T18:24:12.424Z,86042.72
2019-04-05T18:26:39.385Z,86045.70
2019-04-05T18:29:06.090Z,86047.03
2019-04-05T18:31:32.987Z,86050.04
2019-04-05T18:33:59.704Z,86054.14
2019-04-05T18:36:26.434Z,86054.50
2019-04-05T18:38:53.199Z,86060.68
2019-04-05T18:41:19.899Z,86068.00
2019-04-05T18:43:46.803Z,86067.44
2019-04-05T18:46:13.545Z,86066.52
2019-04-05T18:48:40.382Z,86064.64
2019-04-05T18:51:07.232Z,86066.73
2019-04-05T18:53:37.960Z,86071.19
2019-04-05T18:56:02.486Z,86068.20
2019-04-05T18:58:29.259Z,86077.00
2019-04-05T19:00:56.003Z,86080.01
2019-04-05T19:03:22.784Z,86085.45
2019-04-05T19:05:49.569Z,86086.19
2019-04-05T19:08:16.269Z,86085.64
2019-04-05T19:10:43.051Z,86086.97
2019-04-05T19:13:09.752Z,86083.97
2019-04-05T19:15:36.489Z,86086.59
2019-04-05T19:18:03.260Z,86086.23
2019-04-05T19:20:30.013Z,86086.98
2019-04-05T19:22:56.731Z,86090.53
2019-04-05T19:25:23.590Z,86087.72
2019-04-05T19:27:50.305Z,86092.03
2019-04-05T19:50:06.787Z,86103.05
2019-04-05T19:52:37.143Z,86104.55
2019-04-05T19:55:04.845Z,86103.44
2019-04-05T19:57:31.547Z,86119.50
2019-04-05T19:59:58.345Z,86117.45
2019-04-05T20:02:25.260Z,86114.47
2019-04-05T20:04:52.150Z,86109.98
2019-04-05T20:07:19.111Z,86113.89
2019-04-05T20:09:45.966Z,86112.41
2019-04-05T20:12:12.782Z,86118.95
2019-04-05T20:14:39.573Z,86122.31
2019-04-05T20:17:06.332Z,86120.99
2019-04-05T20:19:33.033Z,86123.05
2019-04-05T20:21:59.913Z,86128.47
2019-04-05T20:24:26.672Z,86123.80
2019-04-05T20:26:53.401Z,86129.98
2019-04-05T20:29:21.686Z,86129.04
2019-04-05T20:31:48.539Z,86126.80
2019-04-05T20:34:15.319Z,86130.34
2019-04-05T20:36:42.054Z,86128.84
2019-04-05T20:39:08.843Z,86133.90
2019-04-05T20:41:35.567Z,86134.07
2019-04-05T20:44:02.439Z,86132.39
2019-04-05T20:46:29.290Z,86130.34
2019-04-05T20:48:56.013Z,86136.52
2019-04-05T20:51:22.769Z,86137.44
2019-04-05T20:53:49.619Z,86140.05
2019-04-05T20:56:16.352Z,86134.45
2019-04-05T20:58:43.078Z,86133.89
2019-04-05T21:01:09.930Z,86129.21
2019-04-05T21:03:36.658Z,86126.78
2019-04-05T21:06:03.378Z,86132.20
2019-04-05T21:08:30.122Z,86126.80
2019-04-05T21:10:56.842Z,86125.87
2019-04-05T21:13:23.619Z,86126.80
2019-04-05T21:15:50.358Z,86129.78
2019-04-05T21:18:17.060Z,86131.83
2019-04-05T21:20:44.527Z,86136.87
2019-04-05T21:23:11.241Z,86135.01
2019-04-05T21:25:38.024Z,86131.83
2019-04-05T21:28:04.749Z,86134.81
2019-04-05T21:30:31.485Z,86135.95
2019-04-05T21:32:58.258Z,86135.77
2019-04-05T21:35:24.982Z,86129.42
2019-04-05T21:37:51.795Z,86135.38
2019-04-05T21:40:18.509Z,86129.77
2019-04-05T21:42:45.198Z,86126.05
2019-04-05T21:45:12.226Z,86127.36
2019-04-05T21:47:38.944Z,86126.62
2019-04-05T21:50:08.784Z,86130.16
2019-04-05T21:52:35.531Z,86128.48
2019-04-05T21:55:04.630Z,86127.17
2019-04-05T21:57:31.342Z,86124.37
2019-04-05T21:59:58.116Z,86129.59
2019-04-05T22:02:24.846Z,86129.39
2019-04-05T22:04:51.570Z,86132.20
2019-04-05T22:07:18.410Z,86131.07
2019-04-05T22:09:45.118Z,86137.43
2019-04-05T22:12:11.859Z,86138.19
2019-04-05T22:14:38.621Z,86141.35
2019-04-05T22:17:05.364Z,86139.84
2019-04-05T22:19:32.122Z,86132.38
2019-04-05T22:21:58.874Z,86138.72
2019-04-05T22:24:25.621Z,86135.00
2019-04-05T22:26:52.480Z,86136.69
2019-04-05T22:29:19.205Z,86137.06
2019-04-05T22:31:45.924Z,86138.54
2019-04-05T22:34:12.713Z,86140.42
2019-04-05T22:36:39.431Z,86146.03
2019-04-05T22:39:06.153Z,86147.88
2019-04-05T22:41:32.904Z,86149.39
2019-04-05T22:43:59.646Z,86154.98
2019-04-05T22:46:26.530Z,86162.45
2019-04-05T22:48:53.266Z,86164.53
2019-04-05T22:51:19.985Z,86163.77
2019-04-05T22:53:46.829Z,86160.05
2019-04-05T22:56:13.850Z,86170.88
2019-04-05T22:58:40.547Z,86166.75
2019-04-05T23:01:07.364Z,86165.07
2019-04-05T23:03:34.073Z,86163.95
2019-04-05T23:06:00.799Z,86172.17
2019-04-05T23:08:27.549Z,86176.67
2019-04-05T23:10:54.267Z,86174.61
2019-04-05T23:13:21.142Z,86173.12
2019-04-05T23:15:47.872Z,86184.69
2019-04-05T23:18:14.614Z,86183.93
2019-04-05T23:20:41.552Z,86185.82
2019-04-05T23:23:08.278Z,86179.09
2019-04-05T23:25:35.003Z,86181.50
2019-04-05T23:28:02.130Z,86181.88
2019-04-05T23:30:29.545Z,86186.36
2019-04-05T23:32:56.324Z,86180.38
2019-04-05T23:35:23.046Z,86174.95
2019-04-05T23:37:49.740Z,86173.47
2019-04-05T23:40:16.549Z,86169.92
2019-04-05T23:42:43.283Z,86173.65
2019-04-05T23:45:10.304Z,86171.98
2019-04-05T23:47:37.123Z,86171.97
2019-04-05T23:50:04.842Z,86173.67
2019-04-05T23:52:31.633Z,86174.80
2019-04-05T23:54:58.341Z,86174.41
2019-04-05T23:57:25.076Z,86174.79
2019-04-05T23:59:51.917Z,86172.55
